sensor_id;sensor_type;location;lat;lon;timestamp;temperature;humidity
9847;DHT22;4962;50.084;8.794;2023-03-08T00:00:21;7.60;99.90
9847;DHT22;4962;50.084;8.794;2023-03-08T00:02:48;7.60;99.90
9847;DHT22;4962;50.084;8.794;2023-03-08T00:05:17;7.60;99.90
9847;DHT22;4962;50.084;8.794;2023-03-08T00:07:44;7.60;99.90
9847;DHT22;4962;50.084;8.794;2023-03-08T00:10:13;7.60;99.90
9847;DHT22;4962;50.084;8.794;2023-03-08T00:12:40;7.60;99.90
9847;DHT22;4962;50.084;8.794;2023-03-08T00:15:07;7.60;99.90
9847;DHT22;4962;50.084;8.794;2023-03-08T00:17:35;7.60;99.90
9847;DHT22;4962;50.084;8.794;2023-03-08T00:20:02;7.60;99.90
9847;DHT22;4962;50.084;8.794;2023-03-08T00:22:34;7.60;99.90
9847;DHT22;4962;50.084;8.794;2023-03-08T00:25:01;7.60;99.90
9847;DHT22;4962;50.084;8.794;2023-03-08T00:27:30;7.50;99.90
9847;DHT22;4962;50.084;8.794;2023-03-08T00:29:57;7.60;99.90
9847;DHT22;4962;50.084;8.794;2023-03-08T00:32:24;7.60;99.90
9847;DHT22;4962;50.084;8.794;2023-03-08T00:34:51;7.60;99.90
9847;DHT22;4962;50.084;8.794;2023-03-08T00:37:18;7.60;99.90
9847;DHT22;4962;50.084;8.794;2023-03-08T00:39:49;7.70;99.90
9847;DHT22;4962;50.084;8.794;2023-03-08T00:42:16;7.70;99.90
9847;DHT22;4962;50.084;8.794;2023-03-08T00:44:45;7.60;99.90
9847;DHT22;4962;50.084;8.794;2023-03-08T00:47:12;7.70;99.90
9847;DHT22;4962;50.084;8.794;2023-03-08T00:49:39;7.70;99.90
9847;DHT22;4962;50.084;8.794;2023-03-08T00:52:07;7.70;99.90
9847;DHT22;4962;50.084;8.794;2023-03-08T00:54:34;7.70;99.90
9847;DHT22;4962;50.084;8.794;2023-03-08T00:57:00;7.60;99.90
9847;DHT22;4962;50.084;8.794;2023-03-08T00:59:27;7.60;99.90
9847;DHT22;4962;50.084;8.794;2023-03-08T01:01:56;7.60;99.90
9847;DHT22;4962;50.084;8.794;2023-03-08T01:04:23;7.60;99.90
9847;DHT22;4962;50.084;8.794;2023-03-08T01:06:49;7.60;99.90
9847;DHT22;4962;50.084;8.794;2023-03-08T01:09:16;7.60;99.90
9847;DHT22;4962;50.084;8.794;2023-03-08T01:11:43;7.60;99.90
9847;DHT22;4962;50.084;8.794;2023-03-08T01:14:10;7.60;99.90
9847;DHT22;4962;50.084;8.794;2023-03-08T01:16:37;7.70;99.90
9847;DHT22;4962;50.084;8.794;2023-03-08T01:19:06;7.60;99.90
9847;DHT22;4962;50.084;8.794;2023-03-08T01:21:32;7.70;99.90
9847;DHT22;4962;50.084;8.794;2023-03-08T01:23:59;7.70;99.90
9847;DHT22;4962;50.084;8.794;2023-03-08T01:26:26;7.70;99.90
9847;DHT22;4962;50.084;8.794;2023-03-08T01:28:53;7.70;99.90
9847;DHT22;4962;50.084;8.794;2023-03-08T01:31:23;7.70;99.90
9847;DHT22;4962;50.084;8.794;2023-03-08T01:33:50;7.80;99.90
9847;DHT22;4962;50.084;8.794;2023-03-08T01:36:20;7.80;99.90
9847;DHT22;4962;50.084;8.794;2023-03-08T01:38:48;7.80;99.90
9847;DHT22;4962;50.084;8.794;2023-03-08T01:41:16;7.80;99.90
9847;DHT22;4962;50.084;8.794;2023-03-08T01:43:44;7.80;99.90
9847;DHT22;4962;50.084;8.794;2023-03-08T01:46:23;7.80;99.90
9847;DHT22;4962;50.084;8.794;2023-03-08T01:48:55;7.90;99.90
9847;DHT22;4962;50.084;8.794;2023-03-08T01:51:30;7.90;99.90
9847;DHT22;4962;50.084;8.794;2023-03-08T01:54:02;7.90;99.90
9847;DHT22;4962;50.084;8.794;2023-03-08T01:56:30;7.90;99.90
9847;DHT22;4962;50.084;8.794;2023-03-08T01:58:58;7.90;99.90
9847;DHT22;4962;50.084;8.794;2023-03-08T02:01:26;8.00;99.90
9847;DHT22;4962;50.084;8.794;2023-03-08T02:03:53;7.90;99.90
9847;DHT22;4962;50.084;8.794;2023-03-08T02:06:20;8.00;99.90
9847;DHT22;4962;50.084;8.794;2023-03-08T02:08:49;8.00;99.90
9847;DHT22;4962;50.084;8.794;2023-03-08T02:11:18;8.00;99.90
9847;DHT22;4962;50.084;8.794;2023-03-08T02:13:46;8.00;99.90
9847;DHT22;4962;50.084;8.794;2023-03-08T02:16:14;8.00;99.90
9847;DHT22;4962;50.084;8.794;2023-03-08T02:18:53;8.00;99.90
9847;DHT22;4962;50.084;8.794;2023-03-08T02:21:20;8.00;99.90
9847;DHT22;4962;50.084;8.794;2023-03-08T02:23:49;8.10;99.90
9847;DHT22;4962;50.084;8.794;2023-03-08T02:26:17;8.10;99.90
9847;DHT22;4962;50.084;8.794;2023-03-08T02:28:44;8.30;99.90
9847;DHT22;4962;50.084;8.794;2023-03-08T02:31:12;8.20;99.90
9847;DHT22;4962;50.084;8.794;2023-03-08T02:33:39;8.10;99.90
9847;DHT22;4962;50.084;8.794;2023-03-08T02:36:07;8.00;99.90
9847;DHT22;4962;50.084;8.794;2023-03-08T02:38:34;8.00;99.90
9847;DHT22;4962;50.084;8.794;2023-03-08T02:41:03;8.00;99.90
9847;DHT22;4962;50.084;8.794;2023-03-08T02:43:30;8.00;99.90
9847;DHT22;4962;50.084;8.794;2023-03-08T02:45:57;8.00;99.90
9847;DHT22;4962;50.084;8.794;2023-03-08T02:48:24;7.90;99.90
9847;DHT22;4962;50.084;8.794;2023-03-08T02:50:51;8.00;99.90
9847;DHT22;4962;50.084;8.794;2023-03-08T02:53:18;8.00;99.90
9847;DHT22;4962;50.084;8.794;2023-03-08T02:55:45;8.00;99.90
9847;DHT22;4962;50.084;8.794;2023-03-08T02:58:13;8.10;99.90
9847;DHT22;4962;50.084;8.794;2023-03-08T03:00:40;8.00;99.90
9847;DHT22;4962;50.084;8.794;2023-03-08T03:03:07;8.00;99.90
9847;DHT22;4962;50.084;8.794;2023-03-08T03:05:34;8.00;99.90
9847;DHT22;4962;50.084;8.794;2023-03-08T03:08:01;7.90;99.90
9847;DHT22;4962;50.084;8.794;2023-03-08T03:10:28;8.00;99.90
9847;DHT22;4962;50.084;8.794;2023-03-08T03:12:55;8.00;99.90
9847;DHT22;4962;50.084;8.794;2023-03-08T03:15:23;7.90;99.90
9847;DHT22;4962;50.084;8.794;2023-03-08T03:17:50;8.00;99.90
9847;DHT22;4962;50.084;8.794;2023-03-08T03:20:17;8.00;99.90
9847;DHT22;4962;50.084;8.794;2023-03-08T03:22:44;8.00;99.90
9847;DHT22;4962;50.084;8.794;2023-03-08T03:25:12;8.00;99.90
9847;DHT22;4962;50.084;8.794;2023-03-08T03:27:39;8.00;99.90
9847;DHT22;4962;50.084;8.794;2023-03-08T03:30:08;7.90;99.90
9847;DHT22;4962;50.084;8.794;2023-03-08T03:32:37;8.00;99.90
9847;DHT22;4962;50.084;8.794;2023-03-08T03:35:04;7.90;99.90
9847;DHT22;4962;50.084;8.794;2023-03-08T03:37:33;8.00;99.90
9847;DHT22;4962;50.084;8.794;2023-03-08T03:40:00;7.90;99.90
9847;DHT22;4962;50.084;8.794;2023-03-08T03:42:27;8.00;99.90
9847;DHT22;4962;50.084;8.794;2023-03-08T03:44:53;7.90;99.90
9847;DHT22;4962;50.084;8.794;2023-03-08T03:47:20;7.90;99.90
9847;DHT22;4962;50.084;8.794;2023-03-08T03:49:58;7.90;99.90
9847;DHT22;4962;50.084;8.794;2023-03-08T03:52:25;7.90;99.90
9847;DHT22;4962;50.084;8.794;2023-03-08T03:54:52;7.80;99.90
9847;DHT22;4962;50.084;8.794;2023-03-08T03:57:19;7.80;99.90
9847;DHT22;4962;50.084;8.794;2023-03-08T03:59:46;7.70;99.90
9847;DHT22;4962;50.084;8.794;2023-03-08T04:02:13;7.70;99.90
9847;DHT22;4962;50.084;8.794;2023-03-08T04:04:40;7.60;99.90
9847;DHT22;4962;50.084;8.794;2023-03-08T04:07:09;7.50;99.90
9847;DHT22;4962;50.084;8.794;2023-03-08T04:09:36;7.40;99.90
9847;DHT22;4962;50.084;8.794;2023-03-08T04:12:04;7.20;99.90
9847;DHT22;4962;50.084;8.794;2023-03-08T04:14:32;7.20;99.90
9847;DHT22;4962;50.084;8.794;2023-03-08T04:16:58;7.00;99.90
9847;DHT22;4962;50.084;8.794;2023-03-08T04:19:25;7.20;99.90
9847;DHT22;4962;50.084;8.794;2023-03-08T04:21:52;6.80;99.90
9847;DHT22;4962;50.084;8.794;2023-03-08T04:24:21;6.80;99.90
9847;DHT22;4962;50.084;8.794;2023-03-08T04:26:48;6.80;99.90
9847;DHT22;4962;50.084;8.794;2023-03-08T04:29:15;6.60;99.90
9847;DHT22;4962;50.084;8.794;2023-03-08T04:31:41;6.50;99.90
9847;DHT22;4962;50.084;8.794;2023-03-08T04:34:09;6.30;99.90
9847;DHT22;4962;50.084;8.794;2023-03-08T04:36:36;6.10;99.90
9847;DHT22;4962;50.084;8.794;2023-03-08T04:39:03;6.00;99.90
9847;DHT22;4962;50.084;8.794;2023-03-08T04:41:32;5.90;99.90
9847;DHT22;4962;50.084;8.794;2023-03-08T04:43:59;5.80;99.90
9847;DHT22;4962;50.084;8.794;2023-03-08T04:46:26;5.80;99.90
9847;DHT22;4962;50.084;8.794;2023-03-08T04:48:54;5.70;99.90
9847;DHT22;4962;50.084;8.794;2023-03-08T04:51:24;5.70;99.90
9847;DHT22;4962;50.084;8.794;2023-03-08T04:53:52;5.60;99.90
9847;DHT22;4962;50.084;8.794;2023-03-08T04:56:19;5.70;99.90
9847;DHT22;4962;50.084;8.794;2023-03-08T04:58:48;5.50;99.90
9847;DHT22;4962;50.084;8.794;2023-03-08T05:01:16;5.80;99.90
9847;DHT22;4962;50.084;8.794;2023-03-08T05:03:44;5.60;99.90
9847;DHT22;4962;50.084;8.794;2023-03-08T05:06:11;5.60;99.90
9847;DHT22;4962;50.084;8.794;2023-03-08T05:08:39;5.60;99.90
9847;DHT22;4962;50.084;8.794;2023-03-08T05:11:06;5.60;99.90
9847;DHT22;4962;50.084;8.794;2023-03-08T05:13:35;5.60;99.90
9847;DHT22;4962;50.084;8.794;2023-03-08T05:16:06;5.60;99.90
9847;DHT22;4962;50.084;8.794;2023-03-08T05:18:33;5.50;99.90
9847;DHT22;4962;50.084;8.794;2023-03-08T05:21:02;5.50;99.90
9847;DHT22;4962;50.084;8.794;2023-03-08T05:23:30;5.50;99.90
9847;DHT22;4962;50.084;8.794;2023-03-08T05:25:58;5.40;99.90
9847;DHT22;4962;50.084;8.794;2023-03-08T05:31:50;5.40;99.90
9847;DHT22;4962;50.084;8.794;2023-03-08T05:34:17;5.80;99.90
9847;DHT22;4962;50.084;8.794;2023-03-08T05:36:44;5.50;99.90
9847;DHT22;4962;50.084;8.794;2023-03-08T05:39:11;5.50;99.90
9847;DHT22;4962;50.084;8.794;2023-03-08T05:41:49;5.60;99.90
9847;DHT22;4962;50.084;8.794;2023-03-08T05:44:16;5.80;99.90
9847;DHT22;4962;50.084;8.794;2023-03-08T05:46:43;5.40;99.90
9847;DHT22;4962;50.084;8.794;2023-03-08T05:49:20;5.40;99.90
9847;DHT22;4962;50.084;8.794;2023-03-08T05:51:50;5.40;99.90
9847;DHT22;4962;50.084;8.794;2023-03-08T05:54:18;5.30;99.90
9847;DHT22;4962;50.084;8.794;2023-03-08T05:56:45;5.60;99.90
9847;DHT22;4962;50.084;8.794;2023-03-08T05:59:12;5.30;99.90
9847;DHT22;4962;50.084;8.794;2023-03-08T06:01:39;5.30;99.90
9847;DHT22;4962;50.084;8.794;2023-03-08T06:04:06;5.30;99.90
9847;DHT22;4962;50.084;8.794;2023-03-08T06:06:34;5.30;99.90
9847;DHT22;4962;50.084;8.794;2023-03-08T06:09:04;5.30;99.90
9847;DHT22;4962;50.084;8.794;2023-03-08T06:11:47;5.20;99.90
9847;DHT22;4962;50.084;8.794;2023-03-08T06:14:16;5.10;99.90
9847;DHT22;4962;50.084;8.794;2023-03-08T06:16:43;5.10;99.90
9847;DHT22;4962;50.084;8.794;2023-03-08T06:19:12;5.00;99.90
9847;DHT22;4962;50.084;8.794;2023-03-08T06:21:41;5.00;99.90
9847;DHT22;4962;50.084;8.794;2023-03-08T06:24:11;4.90;99.90
9847;DHT22;4962;50.084;8.794;2023-03-08T06:26:38;5.00;99.90
9847;DHT22;4962;50.084;8.794;2023-03-08T06:29:05;4.80;99.90
9847;DHT22;4962;50.084;8.794;2023-03-08T06:31:32;4.80;99.90
9847;DHT22;4962;50.084;8.794;2023-03-08T06:33:59;4.80;99.90
9847;DHT22;4962;50.084;8.794;2023-03-08T06:36:26;4.80;99.90
9847;DHT22;4962;50.084;8.794;2023-03-08T06:38:54;4.70;99.90
9847;DHT22;4962;50.084;8.794;2023-03-08T06:41:21;4.70;99.90
9847;DHT22;4962;50.084;8.794;2023-03-08T06:43:48;4.80;99.90
9847;DHT22;4962;50.084;8.794;2023-03-08T06:46:17;4.80;99.90
9847;DHT22;4962;50.084;8.794;2023-03-08T06:48:45;4.70;99.90
9847;DHT22;4962;50.084;8.794;2023-03-08T06:51:12;4.60;99.90
9847;DHT22;4962;50.084;8.794;2023-03-08T06:53:39;4.60;99.90
9847;DHT22;4962;50.084;8.794;2023-03-08T06:56:08;4.60;99.90
9847;DHT22;4962;50.084;8.794;2023-03-08T06:58:37;4.50;99.90
9847;DHT22;4962;50.084;8.794;2023-03-08T07:01:04;4.60;99.90
9847;DHT22;4962;50.084;8.794;2023-03-08T07:03:41;4.50;99.90
9847;DHT22;4962;50.084;8.794;2023-03-08T07:06:10;4.40;99.90
9847;DHT22;4962;50.084;8.794;2023-03-08T07:08:37;4.30;99.90
9847;DHT22;4962;50.084;8.794;2023-03-08T07:11:10;4.20;99.90
9847;DHT22;4962;50.084;8.794;2023-03-08T07:13:37;4.40;99.90
9847;DHT22;4962;50.084;8.794;2023-03-08T07:16:07;4.40;99.90
9847;DHT22;4962;50.084;8.794;2023-03-08T07:18:34;4.40;99.90
9847;DHT22;4962;50.084;8.794;2023-03-08T07:21:05;4.40;99.90
9847;DHT22;4962;50.084;8.794;2023-03-08T07:23:32;4.40;99.90
9847;DHT22;4962;50.084;8.794;2023-03-08T07:25:59;4.40;99.90
9847;DHT22;4962;50.084;8.794;2023-03-08T07:28:30;4.40;99.90
9847;DHT22;4962;50.084;8.794;2023-03-08T07:31:03;4.40;99.90
9847;DHT22;4962;50.084;8.794;2023-03-08T07:33:31;4.50;99.90
9847;DHT22;4962;50.084;8.794;2023-03-08T07:35:58;4.40;99.90
9847;DHT22;4962;50.084;8.794;2023-03-08T07:38:27;4.40;99.90
9847;DHT22;4962;50.084;8.794;2023-03-08T07:40:54;4.40;99.90
9847;DHT22;4962;50.084;8.794;2023-03-08T07:43:22;4.00;99.90
9847;DHT22;4962;50.084;8.794;2023-03-08T07:45:50;4.00;99.90
9847;DHT22;4962;50.084;8.794;2023-03-08T07:48:17;4.00;99.90
9847;DHT22;4962;50.084;8.794;2023-03-08T07:51:00;3.90;99.90
9847;DHT22;4962;50.084;8.794;2023-03-08T07:53:28;3.80;99.90
9847;DHT22;4962;50.084;8.794;2023-03-08T07:55:57;3.70;99.90
9847;DHT22;4962;50.084;8.794;2023-03-08T07:58:24;3.70;99.90
9847;DHT22;4962;50.084;8.794;2023-03-08T08:00:53;3.60;99.90
9847;DHT22;4962;50.084;8.794;2023-03-08T08:03:21;3.60;99.90
9847;DHT22;4962;50.084;8.794;2023-03-08T08:05:48;3.60;99.90
9847;DHT22;4962;50.084;8.794;2023-03-08T08:08:15;3.50;99.90
9847;DHT22;4962;50.084;8.794;2023-03-08T08:10:42;3.50;99.90
9847;DHT22;4962;50.084;8.794;2023-03-08T08:13:10;3.50;99.90
9847;DHT22;4962;50.084;8.794;2023-03-08T08:15:37;3.40;99.90
9847;DHT22;4962;50.084;8.794;2023-03-08T08:18:08;3.40;99.90
9847;DHT22;4962;50.084;8.794;2023-03-08T08:20:35;3.30;99.90
9847;DHT22;4962;50.084;8.794;2023-03-08T08:23:04;3.30;99.90
9847;DHT22;4962;50.084;8.794;2023-03-08T08:25:31;3.30;99.90
9847;DHT22;4962;50.084;8.794;2023-03-08T08:27:58;3.30;99.90
9847;DHT22;4962;50.084;8.794;2023-03-08T08:30:25;3.30;99.90
9847;DHT22;4962;50.084;8.794;2023-03-08T08:32:52;3.20;99.90
9847;DHT22;4962;50.084;8.794;2023-03-08T08:35:20;3.10;99.90
9847;DHT22;4962;50.084;8.794;2023-03-08T08:37:47;3.00;99.90
9847;DHT22;4962;50.084;8.794;2023-03-08T08:40:14;2.90;99.90
9847;DHT22;4962;50.084;8.794;2023-03-08T08:42:41;2.80;99.90
9847;DHT22;4962;50.084;8.794;2023-03-08T08:45:09;2.70;99.90
9847;DHT22;4962;50.084;8.794;2023-03-08T08:47:50;2.60;99.90
9847;DHT22;4962;50.084;8.794;2023-03-08T08:50:17;2.80;99.90
9847;DHT22;4962;50.084;8.794;2023-03-08T08:52:48;3.00;99.90
9847;DHT22;4962;50.084;8.794;2023-03-08T08:55:16;2.60;99.90
9847;DHT22;4962;50.084;8.794;2023-03-08T08:57:46;2.40;99.90
9847;DHT22;4962;50.084;8.794;2023-03-08T09:00:14;2.50;99.90
9847;DHT22;4962;50.084;8.794;2023-03-08T09:02:44;2.50;99.90
9847;DHT22;4962;50.084;8.794;2023-03-08T09:05:14;2.50;99.90
9847;DHT22;4962;50.084;8.794;2023-03-08T09:08:10;2.20;99.90
9847;DHT22;4962;50.084;8.794;2023-03-08T09:13:48;2.80;99.90
9847;DHT22;4962;50.084;8.794;2023-03-08T09:19:28;2.40;99.90
9847;DHT22;4962;50.084;8.794;2023-03-08T09:21:55;2.30;99.90
9847;DHT22;4962;50.084;8.794;2023-03-08T09:24:28;2.30;99.90
9847;DHT22;4962;50.084;8.794;2023-03-08T09:27:08;2.30;99.90
9847;DHT22;4962;50.084;8.794;2023-03-08T09:29:41;2.50;99.90
9847;DHT22;4962;50.084;8.794;2023-03-08T09:32:11;2.60;99.90
9847;DHT22;4962;50.084;8.794;2023-03-08T09:34:41;2.10;99.90
9847;DHT22;4962;50.084;8.794;2023-03-08T09:37:27;2.10;99.90
9847;DHT22;4962;50.084;8.794;2023-03-08T09:39:56;2.30;99.90
9847;DHT22;4962;50.084;8.794;2023-03-08T09:42:26;2.30;99.90
9847;DHT22;4962;50.084;8.794;2023-03-08T09:45:17;2.30;99.90
9847;DHT22;4962;50.084;8.794;2023-03-08T09:48:04;2.40;99.90
9847;DHT22;4962;50.084;8.794;2023-03-08T09:54:10;2.50;99.90
9847;DHT22;4962;50.084;8.794;2023-03-08T09:56:51;2.50;99.90
9847;DHT22;4962;50.084;8.794;2023-03-08T09:59:36;2.50;99.90
9847;DHT22;4962;50.084;8.794;2023-03-08T10:02:43;2.50;99.90
9847;DHT22;4962;50.084;8.794;2023-03-08T10:06:06;2.50;99.90
9847;DHT22;4962;50.084;8.794;2023-03-08T10:08:52;2.30;99.90
9847;DHT22;4962;50.084;8.794;2023-03-08T10:11:32;2.60;99.90
9847;DHT22;4962;50.084;8.794;2023-03-08T10:21:19;2.40;99.90
9847;DHT22;4962;50.084;8.794;2023-03-08T10:23:58;2.40;99.90
9847;DHT22;4962;50.084;8.794;2023-03-08T10:26:29;2.30;99.90
9847;DHT22;4962;50.084;8.794;2023-03-08T10:29:02;2.40;99.90
9847;DHT22;4962;50.084;8.794;2023-03-08T10:31:33;2.60;99.90
9847;DHT22;4962;50.084;8.794;2023-03-08T10:34:10;2.40;99.90
9847;DHT22;4962;50.084;8.794;2023-03-08T10:36:59;2.40;99.90
9847;DHT22;4962;50.084;8.794;2023-03-08T10:39:46;2.50;99.90
9847;DHT22;4962;50.084;8.794;2023-03-08T10:42:19;2.50;99.90
9847;DHT22;4962;50.084;8.794;2023-03-08T10:44:54;2.40;99.90
9847;DHT22;4962;50.084;8.794;2023-03-08T10:47:29;2.60;99.90
9847;DHT22;4962;50.084;8.794;2023-03-08T11:00:36;2.80;99.90
9847;DHT22;4962;50.084;8.794;2023-03-08T11:03:21;2.90;99.90
9847;DHT22;4962;50.084;8.794;2023-03-08T11:05:57;2.90;99.90
9847;DHT22;4962;50.084;8.794;2023-03-08T11:08:26;2.90;99.90
9847;DHT22;4962;50.084;8.794;2023-03-08T11:11:02;3.20;99.90
9847;DHT22;4962;50.084;8.794;2023-03-08T11:13:33;2.90;99.90
9847;DHT22;4962;50.084;8.794;2023-03-08T11:16:21;3.00;99.90
9847;DHT22;4962;50.084;8.794;2023-03-08T11:18:59;3.00;99.90
9847;DHT22;4962;50.084;8.794;2023-03-08T11:21:36;3.00;99.90
9847;DHT22;4962;50.084;8.794;2023-03-08T11:24:17;3.00;99.90
9847;DHT22;4962;50.084;8.794;2023-03-08T11:27:04;3.10;99.90
9847;DHT22;4962;50.084;8.794;2023-03-08T11:29:40;3.20;99.90
9847;DHT22;4962;50.084;8.794;2023-03-08T11:32:30;3.30;99.90
9847;DHT22;4962;50.084;8.794;2023-03-08T11:35:08;3.40;99.90
9847;DHT22;4962;50.084;8.794;2023-03-08T11:37:41;3.40;99.90
9847;DHT22;4962;50.084;8.794;2023-03-08T11:40:34;3.50;99.90
9847;DHT22;4962;50.084;8.794;2023-03-08T11:43:18;3.40;99.90
9847;DHT22;4962;50.084;8.794;2023-03-08T11:45:53;3.40;99.90
9847;DHT22;4962;50.084;8.794;2023-03-08T11:48:37;3.50;99.90
9847;DHT22;4962;50.084;8.794;2023-03-08T11:51:14;3.50;99.90
9847;DHT22;4962;50.084;8.794;2023-03-08T11:53:52;3.50;99.90
9847;DHT22;4962;50.084;8.794;2023-03-08T11:56:39;3.60;99.90
9847;DHT22;4962;50.084;8.794;2023-03-08T11:59:15;3.60;99.90
9847;DHT22;4962;50.084;8.794;2023-03-08T12:01:47;3.60;99.90
9847;DHT22;4962;50.084;8.794;2023-03-08T12:04:19;3.70;99.90
9847;DHT22;4962;50.084;8.794;2023-03-08T12:06:52;3.80;99.90
9847;DHT22;4962;50.084;8.794;2023-03-08T12:09:27;3.90;99.90
9847;DHT22;4962;50.084;8.794;2023-03-08T12:11:59;3.70;99.90
9847;DHT22;4962;50.084;8.794;2023-03-08T12:14:30;3.80;99.90
9847;DHT22;4962;50.084;8.794;2023-03-08T12:17:03;3.80;99.90
9847;DHT22;4962;50.084;8.794;2023-03-08T12:19:37;3.80;99.90
9847;DHT22;4962;50.084;8.794;2023-03-08T12:22:17;4.00;99.90
9847;DHT22;4962;50.084;8.794;2023-03-08T12:24:51;3.90;99.90
9847;DHT22;4962;50.084;8.794;2023-03-08T12:27:23;4.00;99.90
9847;DHT22;4962;50.084;8.794;2023-03-08T12:29:56;4.00;99.90
9847;DHT22;4962;50.084;8.794;2023-03-08T12:32:25;4.10;99.90
9847;DHT22;4962;50.084;8.794;2023-03-08T12:35:02;4.10;99.90
9847;DHT22;4962;50.084;8.794;2023-03-08T12:37:30;4.10;99.90
9847;DHT22;4962;50.084;8.794;2023-03-08T12:40:00;4.20;99.90
9847;DHT22;4962;50.084;8.794;2023-03-08T12:42:35;4.10;99.90
9847;DHT22;4962;50.084;8.794;2023-03-08T12:45:24;4.10;99.90
9847;DHT22;4962;50.084;8.794;2023-03-08T12:48:08;4.10;99.90
9847;DHT22;4962;50.084;8.794;2023-03-08T12:50:43;4.10;99.90
9847;DHT22;4962;50.084;8.794;2023-03-08T12:53:22;4.10;99.90
9847;DHT22;4962;50.084;8.794;2023-03-08T12:55:59;4.20;99.90
9847;DHT22;4962;50.084;8.794;2023-03-08T12:58:28;4.30;99.90
9847;DHT22;4962;50.084;8.794;2023-03-08T13:00:57;4.30;99.90
9847;DHT22;4962;50.084;8.794;2023-03-08T13:09:32;4.40;99.90
9847;DHT22;4962;50.084;8.794;2023-03-08T13:12:17;4.40;99.90
9847;DHT22;4962;50.084;8.794;2023-03-08T13:14:58;4.40;99.90
9847;DHT22;4962;50.084;8.794;2023-03-08T13:17:32;4.40;99.90
9847;DHT22;4962;50.084;8.794;2023-03-08T13:20:03;4.40;99.90
9847;DHT22;4962;50.084;8.794;2023-03-08T13:25:50;4.60;99.90
9847;DHT22;4962;50.084;8.794;2023-03-08T13:28:21;4.70;99.90
9847;DHT22;4962;50.084;8.794;2023-03-08T13:30:51;4.70;99.90
9847;DHT22;4962;50.084;8.794;2023-03-08T13:36:35;4.70;99.90
9847;DHT22;4962;50.084;8.794;2023-03-08T13:39:06;4.80;99.90
9847;DHT22;4962;50.084;8.794;2023-03-08T13:41:36;4.80;99.90
9847;DHT22;4962;50.084;8.794;2023-03-08T13:44:14;4.80;99.90
9847;DHT22;4962;50.084;8.794;2023-03-08T13:46:42;4.90;99.90
9847;DHT22;4962;50.084;8.794;2023-03-08T13:49:13;4.90;99.90
9847;DHT22;4962;50.084;8.794;2023-03-08T13:51:43;4.90;99.90
9847;DHT22;4962;50.084;8.794;2023-03-08T13:54:16;4.80;99.90
9847;DHT22;4962;50.084;8.794;2023-03-08T13:56:59;4.90;99.90
9847;DHT22;4962;50.084;8.794;2023-03-08T13:59:27;4.80;99.90
9847;DHT22;4962;50.084;8.794;2023-03-08T14:01:55;4.90;99.90
9847;DHT22;4962;50.084;8.794;2023-03-08T14:04:24;4.90;99.90
9847;DHT22;4962;50.084;8.794;2023-03-08T14:06:53;5.10;99.90
9847;DHT22;4962;50.084;8.794;2023-03-08T14:09:22;4.70;99.90
9847;DHT22;4962;50.084;8.794;2023-03-08T14:11:57;4.90;99.90
9847;DHT22;4962;50.084;8.794;2023-03-08T14:14:27;4.90;99.90
9847;DHT22;4962;50.084;8.794;2023-03-08T14:16:55;4.90;99.90
9847;DHT22;4962;50.084;8.794;2023-03-08T14:19:25;4.90;99.90
9847;DHT22;4962;50.084;8.794;2023-03-08T14:21:54;4.90;99.90
9847;DHT22;4962;50.084;8.794;2023-03-08T14:24:35;4.80;99.90
9847;DHT22;4962;50.084;8.794;2023-03-08T14:27:04;4.90;99.90
9847;DHT22;4962;50.084;8.794;2023-03-08T14:29:33;4.90;99.90
9847;DHT22;4962;50.084;8.794;2023-03-08T14:32:04;4.80;99.90
9847;DHT22;4962;50.084;8.794;2023-03-08T14:34:32;4.80;99.90
9847;DHT22;4962;50.084;8.794;2023-03-08T14:37:03;4.80;99.90
9847;DHT22;4962;50.084;8.794;2023-03-08T14:39:33;4.90;99.90
9847;DHT22;4962;50.084;8.794;2023-03-08T14:42:10;4.90;99.90
9847;DHT22;4962;50.084;8.794;2023-03-08T14:44:41;5.00;99.90
9847;DHT22;4962;50.084;8.794;2023-03-08T14:47:09;5.00;99.90
9847;DHT22;4962;50.084;8.794;2023-03-08T14:49:54;5.10;99.90
9847;DHT22;4962;50.084;8.794;2023-03-08T14:52:21;5.10;99.90
9847;DHT22;4962;50.084;8.794;2023-03-08T14:54:48;5.10;99.90
9847;DHT22;4962;50.084;8.794;2023-03-08T14:57:18;5.10;99.90
9847;DHT22;4962;50.084;8.794;2023-03-08T14:59:46;5.10;99.90
9847;DHT22;4962;50.084;8.794;2023-03-08T15:02:15;5.10;99.90
9847;DHT22;4962;50.084;8.794;2023-03-08T15:04:43;5.20;99.90
9847;DHT22;4962;50.084;8.794;2023-03-08T15:07:17;5.00;99.90
9847;DHT22;4962;50.084;8.794;2023-03-08T15:09:45;5.00;99.90
9847;DHT22;4962;50.084;8.794;2023-03-08T15:12:12;5.00;99.90
9847;DHT22;4962;50.084;8.794;2023-03-08T15:14:41;5.00;99.90
9847;DHT22;4962;50.084;8.794;2023-03-08T15:17:08;5.00;99.90
9847;DHT22;4962;50.084;8.794;2023-03-08T15:19:35;5.10;99.90
9847;DHT22;4962;50.084;8.794;2023-03-08T15:22:03;5.10;99.90
9847;DHT22;4962;50.084;8.794;2023-03-08T15:24:31;5.30;99.90
9847;DHT22;4962;50.084;8.794;2023-03-08T15:26:58;5.30;99.90
9847;DHT22;4962;50.084;8.794;2023-03-08T15:29:26;5.40;99.90
9847;DHT22;4962;50.084;8.794;2023-03-08T15:32:06;5.40;99.90
9847;DHT22;4962;50.084;8.794;2023-03-08T15:34:34;5.30;99.90
9847;DHT22;4962;50.084;8.794;2023-03-08T15:37:03;5.40;99.90
9847;DHT22;4962;50.084;8.794;2023-03-08T15:39:32;5.40;99.90
9847;DHT22;4962;50.084;8.794;2023-03-08T15:41:59;5.30;99.90
9847;DHT22;4962;50.084;8.794;2023-03-08T15:47:19;5.30;99.90
9847;DHT22;4962;50.084;8.794;2023-03-08T15:49:53;5.30;99.90
9847;DHT22;4962;50.084;8.794;2023-03-08T15:52:28;5.40;99.90
9847;DHT22;4962;50.084;8.794;2023-03-08T15:55:15;5.40;99.90
9847;DHT22;4962;50.084;8.794;2023-03-08T15:57:43;5.30;99.90
9847;DHT22;4962;50.084;8.794;2023-03-08T16:00:12;5.40;99.90
9847;DHT22;4962;50.084;8.794;2023-03-08T16:02:42;5.30;99.90
9847;DHT22;4962;50.084;8.794;2023-03-08T16:05:10;5.40;99.90
9847;DHT22;4962;50.084;8.794;2023-03-08T16:07:38;5.40;99.90
9847;DHT22;4962;50.084;8.794;2023-03-08T16:10:13;5.40;99.90
9847;DHT22;4962;50.084;8.794;2023-03-08T16:12:40;5.40;99.90
9847;DHT22;4962;50.084;8.794;2023-03-08T16:15:08;5.40;99.90
9847;DHT22;4962;50.084;8.794;2023-03-08T16:17:37;5.50;99.90
9847;DHT22;4962;50.084;8.794;2023-03-08T16:20:07;5.50;99.90
9847;DHT22;4962;50.084;8.794;2023-03-08T16:22:34;5.50;99.90
9847;DHT22;4962;50.084;8.794;2023-03-08T16:25:02;5.40;99.90
9847;DHT22;4962;50.084;8.794;2023-03-08T16:27:30;5.40;99.90
9847;DHT22;4962;50.084;8.794;2023-03-08T16:30:02;5.40;99.90
9847;DHT22;4962;50.084;8.794;2023-03-08T16:32:30;5.40;99.90
9847;DHT22;4962;50.084;8.794;2023-03-08T16:34:57;5.40;99.90
9847;DHT22;4962;50.084;8.794;2023-03-08T16:37:26;5.40;99.90
9847;DHT22;4962;50.084;8.794;2023-03-08T16:39:54;5.30;99.90
9847;DHT22;4962;50.084;8.794;2023-03-08T16:42:24;5.30;99.90
9847;DHT22;4962;50.084;8.794;2023-03-08T16:44:52;5.30;99.90
9847;DHT22;4962;50.084;8.794;2023-03-08T16:47:20;5.40;99.90
9847;DHT22;4962;50.084;8.794;2023-03-08T16:49:48;5.40;99.90
9847;DHT22;4962;50.084;8.794;2023-03-08T16:52:16;5.20;99.90
9847;DHT22;4962;50.084;8.794;2023-03-08T16:54:48;5.10;99.90
9847;DHT22;4962;50.084;8.794;2023-03-08T16:57:22;5.10;99.90
9847;DHT22;4962;50.084;8.794;2023-03-08T17:02:52;5.10;99.90
9847;DHT22;4962;50.084;8.794;2023-03-08T17:05:19;5.20;99.90
9847;DHT22;4962;50.084;8.794;2023-03-08T17:07:46;5.30;99.90
9847;DHT22;4962;50.084;8.794;2023-03-08T17:10:17;5.20;99.90
9847;DHT22;4962;50.084;8.794;2023-03-08T17:12:44;5.20;99.90
9847;DHT22;4962;50.084;8.794;2023-03-08T17:15:11;5.20;99.90
9847;DHT22;4962;50.084;8.794;2023-03-08T17:17:38;5.20;99.90
9847;DHT22;4962;50.084;8.794;2023-03-08T17:20:06;5.30;99.90
9847;DHT22;4962;50.084;8.794;2023-03-08T17:22:34;5.20;99.90
9847;DHT22;4962;50.084;8.794;2023-03-08T17:25:05;5.10;99.90
9847;DHT22;4962;50.084;8.794;2023-03-08T17:27:35;5.10;99.90